createdAt,value
2018-04-20T00:00:04.948Z,0.00
2018-04-20T00:01:04.919Z,0.00
2018-04-20T00:02:04.895Z,0.00
2018-04-20T00:03:04.877Z,0.00
2018-04-20T00:04:04.850Z,0.00
2018-04-20T00:05:04.827Z,0.00
2018-04-20T00:06:04.803Z,0.00
2018-04-20T00:07:04.775Z,0.00
2018-04-20T00:08:04.759Z,0.00
2018-04-20T00:09:04.735Z,0.00
2018-04-20T00:10:04.711Z,0.00
2018-04-20T00:11:04.682Z,0.00
2018-04-20T00:12:04.674Z,0.00
2018-04-20T00:13:04.666Z,0.00
2018-04-20T00:14:04.619Z,0.00
2018-04-20T00:15:04.596Z,0.00
2018-04-20T00:16:04.574Z,0.00
2018-04-20T00:17:04.554Z,0.00
2018-04-20T00:18:04.526Z,0.00
2018-04-20T00:19:04.504Z,0.00
2018-04-20T00:20:04.481Z,0.00
2018-04-20T00:21:04.457Z,0.00
2018-04-20T00:22:04.434Z,0.00
2018-04-20T00:23:04.411Z,0.00
2018-04-20T00:24:04.399Z,0.00
2018-04-20T00:25:04.365Z,0.00
2018-04-20T00:26:04.341Z,0.00
2018-04-20T00:27:04.324Z,0.00
2018-04-20T00:28:04.299Z,0.00
2018-04-20T00:29:04.272Z,0.00
2018-04-20T00:30:04.249Z,0.00
2018-04-20T00:31:04.231Z,0.00
2018-04-20T00:32:04.204Z,0.00
2018-04-20T00:33:04.182Z,0.00
2018-04-20T00:34:04.156Z,0.00
2018-04-20T00:35:04.137Z,0.00
2018-04-20T00:36:04.111Z,0.00
2018-04-20T00:37:04.088Z,0.00
2018-04-20T00:38:04.071Z,0.00
2018-04-20T00:39:04.056Z,0.00
2018-04-20T00:40:04.019Z,0.00
2018-04-20T00:41:03.999Z,0.00
2018-04-20T00:42:03.988Z,0.00
2018-04-20T00:43:03.948Z,0.00
2018-04-20T00:44:03.926Z,0.00
2018-04-20T00:45:03.901Z,0.00
2018-04-20T00:46:03.878Z,0.00
2018-04-20T00:47:03.854Z,0.00
2018-04-20T00:48:03.832Z,0.00
2018-04-20T00:49:03.809Z,0.00
2018-04-20T00:50:04.586Z,0.00
2018-04-20T00:51:03.767Z,0.00
2018-04-20T00:52:03.739Z,0.00
2018-04-20T00:53:03.716Z,0.00
2018-04-20T00:54:03.692Z,0.00
2018-04-20T00:55:03.673Z,0.00
2018-04-20T00:56:03.646Z,0.00
2018-04-20T00:57:03.624Z,0.00
2018-04-20T00:58:03.608Z,0.00
2018-04-20T00:59:03.576Z,0.00
2018-04-20T01:00:03.553Z,0.00
2018-04-20T01:01:03.529Z,0.00
2018-04-20T01:02:03.505Z,0.00
2018-04-20T01:03:03.487Z,0.00
2018-04-20T01:04:03.473Z,0.00
2018-04-20T01:05:03.436Z,0.00
2018-04-20T01:06:03.412Z,0.00
2018-04-20T01:07:03.389Z,0.00
2018-04-20T01:08:03.366Z,0.00
2018-04-20T01:09:03.343Z,0.00
2018-04-20T01:10:03.318Z,0.00
2018-04-20T01:11:03.294Z,0.00
2018-04-20T01:12:03.275Z,0.00
2018-04-20T01:13:03.248Z,0.00
2018-04-20T01:14:03.224Z,0.00
2018-04-20T01:15:03.205Z,0.00
2018-04-20T01:16:03.186Z,0.00
2018-04-20T01:17:03.154Z,0.00
2018-04-20T01:18:03.131Z,0.00
2018-04-20T01:19:03.112Z,0.00
2018-04-20T01:20:03.091Z,0.00
2018-04-20T01:21:03.061Z,0.00
2018-04-20T01:22:03.036Z,0.00
2018-04-20T01:23:03.015Z,0.00
2018-04-20T01:24:02.990Z,0.00
2018-04-20T01:25:02.972Z,0.00
2018-04-20T01:26:02.946Z,0.00
2018-04-20T01:27:02.923Z,0.00
2018-04-20T01:28:02.895Z,0.00
2018-04-20T01:29:02.871Z,0.00
2018-04-20T01:30:02.847Z,0.00
2018-04-20T01:31:02.823Z,0.00
2018-04-20T01:32:02.800Z,0.00
2018-04-20T01:33:02.777Z,0.00
2018-04-20T01:34:02.752Z,0.00
2018-04-20T01:35:02.731Z,0.00
2018-04-20T01:36:02.713Z,0.00
2018-04-20T01:37:02.682Z,0.00
2018-04-20T01:38:02.658Z,0.00
2018-04-20T01:39:02.635Z,0.00
2018-04-20T01:40:02.616Z,0.00
2018-04-20T01:41:02.590Z,0.00
2018-04-20T01:42:02.562Z,0.00
2018-04-20T01:43:02.589Z,0.00
2018-04-20T01:44:02.518Z,0.00
2018-04-20T01:45:02.492Z,0.00
2018-04-20T01:46:02.480Z,0.00
2018-04-20T01:47:02.445Z,0.00
2018-04-20T01:48:02.421Z,0.00
2018-04-20T01:49:02.396Z,0.00
2018-04-20T01:50:02.371Z,0.00
2018-04-20T01:51:02.347Z,0.00
2018-04-20T01:52:02.326Z,0.00
2018-04-20T01:53:02.300Z,0.00
2018-04-20T01:54:02.277Z,0.00
2018-04-20T01:55:02.254Z,0.00
2018-04-20T01:56:02.230Z,0.00
2018-04-20T01:57:02.204Z,0.00
2018-04-20T01:58:02.200Z,0.00
2018-04-20T01:59:02.156Z,0.00
2018-04-20T02:00:02.133Z,0.00
2018-04-20T02:01:02.109Z,0.00
2018-04-20T02:02:02.097Z,0.00
2018-04-20T02:03:02.061Z,0.00
2018-04-20T02:04:02.037Z,0.00
2018-04-20T02:05:02.013Z,0.00
2018-04-20T02:06:01.991Z,0.00
2018-04-20T02:07:01.967Z,0.00
2018-04-20T02:08:01.942Z,0.00
2018-04-20T02:09:01.922Z,0.00
2018-04-20T02:10:01.926Z,0.00
2018-04-20T02:11:01.873Z,0.00
2018-04-20T02:12:01.847Z,0.00
2018-04-20T02:13:01.826Z,0.00
2018-04-20T02:14:01.800Z,0.00
2018-04-20T02:15:01.776Z,0.00
2018-04-20T02:16:01.756Z,0.00
2018-04-20T02:17:01.728Z,0.00
2018-04-20T02:18:01.707Z,0.00
2018-04-20T02:19:01.680Z,0.00
2018-04-20T02:20:01.664Z,0.00
2018-04-20T02:21:01.632Z,0.00
2018-04-20T02:22:01.616Z,0.00
2018-04-20T02:23:01.585Z,0.00
2018-04-20T02:24:01.570Z,0.00
2018-04-20T02:25:01.553Z,0.00
2018-04-20T02:26:01.519Z,0.00
2018-04-20T02:27:01.494Z,0.00
2018-04-20T02:28:01.465Z,0.00
2018-04-20T02:29:01.441Z,0.00
2018-04-20T02:30:01.418Z,0.00
2018-04-20T02:31:01.407Z,0.00
2018-04-20T02:32:01.369Z,0.00
2018-04-20T02:33:01.345Z,0.00
2018-04-20T02:34:01.327Z,0.00
2018-04-20T02:35:01.301Z,0.00
2018-04-20T02:36:01.281Z,0.00
2018-04-20T02:37:01.251Z,0.00
2018-04-20T02:38:01.224Z,0.00
2018-04-20T02:39:01.202Z,0.00
2018-04-20T02:40:01.178Z,0.00
2018-04-20T02:41:01.153Z,0.00
2018-04-20T02:42:01.130Z,0.00
2018-04-20T02:43:01.106Z,0.00
2018-04-20T02:44:01.088Z,0.00
2018-04-20T02:45:01.058Z,0.00
2018-04-20T02:46:01.035Z,0.00
2018-04-20T02:47:01.008Z,0.00
2018-04-20T02:48:00.988Z,0.00
2018-04-20T02:49:00.969Z,0.00
2018-04-20T02:50:00.938Z,0.00
2018-04-20T02:51:00.913Z,0.00
2018-04-20T02:52:00.890Z,0.00
2018-04-20T02:53:00.876Z,0.00
2018-04-20T02:54:00.842Z,0.00
2018-04-20T02:55:00.821Z,0.00
2018-04-20T02:56:00.798Z,0.00
2018-04-20T02:57:00.770Z,0.00
2018-04-20T02:58:00.746Z,0.00
2018-04-20T02:59:00.723Z,0.00
2018-04-20T03:00:00.697Z,0.00
2018-04-20T03:01:00.677Z,0.00
2018-04-20T03:02:00.649Z,0.00
2018-04-20T03:03:00.625Z,0.00
2018-04-20T03:04:00.601Z,0.00
2018-04-20T03:05:00.576Z,0.00
2018-04-20T03:06:00.555Z,0.00
2018-04-20T03:07:00.529Z,0.00
2018-04-20T03:08:00.507Z,0.00
2018-04-20T03:09:00.479Z,0.00
2018-04-20T03:10:00.454Z,0.00
2018-04-20T03:11:00.430Z,0.00
2018-04-20T03:12:00.411Z,0.00
2018-04-20T03:13:00.383Z,0.00
2018-04-20T03:14:00.358Z,0.00
2018-04-20T03:15:00.333Z,0.00
2018-04-20T03:16:00.312Z,0.00
2018-04-20T03:17:00.285Z,0.00
2018-04-20T03:18:00.260Z,0.00
2018-04-20T03:19:00.237Z,0.00
2018-04-20T03:20:00.212Z,0.00
2018-04-20T03:21:00.188Z,0.00
2018-04-20T03:22:00.174Z,0.00
2018-04-20T03:23:00.150Z,0.00
2018-04-20T03:24:00.124Z,0.00
2018-04-20T03:25:00.097Z,0.00
2018-04-20T03:26:00.069Z,0.00
2018-04-20T03:27:00.043Z,0.00
2018-04-20T03:28:00.019Z,0.00
2018-04-20T03:28:59.995Z,0.00
2018-04-20T03:29:59.970Z,0.00
2018-04-20T03:30:59.946Z,0.00
2018-04-20T03:31:59.921Z,0.00
2018-04-20T03:32:59.897Z,0.00
2018-04-20T03:33:59.872Z,0.00
2018-04-20T03:34:59.848Z,0.00
2018-04-20T03:35:59.833Z,0.00
2018-04-20T03:36:59.801Z,0.00
2018-04-20T03:37:59.789Z,0.00
2018-04-20T03:38:59.753Z,0.00
2018-04-20T03:39:59.727Z,0.00
2018-04-20T03:40:59.702Z,0.00
2018-04-20T03:41:59.678Z,0.00
2018-04-20T03:42:59.653Z,0.00
2018-04-20T03:43:59.636Z,0.00
2018-04-20T03:44:59.608Z,0.00
2018-04-20T03:45:59.582Z,0.00
2018-04-20T03:46:59.562Z,0.00
2018-04-20T03:47:59.531Z,0.00
2018-04-20T03:48:59.511Z,0.00
2018-04-20T03:49:59.483Z,0.00
2018-04-20T03:50:59.463Z,0.00
2018-04-20T03:51:59.433Z,0.00
2018-04-20T03:52:59.409Z,5.63
2018-04-20T03:53:59.386Z,5.63
2018-04-20T03:54:59.358Z,5.63
2018-04-20T03:55:59.334Z,5.63
2018-04-20T03:56:59.314Z,5.63
2018-04-20T03:57:59.285Z,5.63
2018-04-20T03:58:59.261Z,11.25
2018-04-20T03:59:59.245Z,11.25
2018-04-20T04:00:59.214Z,11.25
2018-04-20T04:01:59.187Z,11.25
2018-04-20T04:02:59.163Z,16.88
2018-04-20T04:03:59.139Z,16.88
2018-04-20T04:04:59.115Z,16.88
2018-04-20T04:05:59.096Z,22.50
2018-04-20T04:06:59.101Z,22.50
2018-04-20T04:07:59.044Z,28.13
2018-04-20T04:08:59.016Z,28.13
2018-04-20T04:09:58.991Z,33.75
2018-04-20T04:10:58.969Z,33.75
2018-04-20T04:11:58.942Z,39.38
2018-04-20T04:12:58.917Z,39.38
2018-04-20T04:13:58.892Z,45.00
2018-04-20T04:14:58.874Z,45.00
2018-04-20T04:15:58.844Z,50.63
2018-04-20T04:16:58.820Z,56.25
2018-04-20T04:17:58.821Z,56.25
2018-04-20T04:18:58.774Z,61.88
2018-04-20T04:19:58.745Z,61.88
2018-04-20T04:20:58.722Z,67.50
2018-04-20T04:21:58.696Z,73.13
2018-04-20T04:22:58.672Z,73.13
2018-04-20T04:23:58.647Z,78.75
2018-04-20T04:24:58.623Z,84.38
2018-04-20T04:25:58.598Z,90.00
2018-04-20T04:26:58.574Z,95.63
2018-04-20T04:27:58.549Z,101.25
2018-04-20T04:28:58.525Z,112.50
2018-04-20T04:29:58.500Z,112.50
2018-04-20T04:30:58.475Z,123.75
2018-04-20T04:31:58.454Z,129.38
2018-04-20T04:32:58.427Z,140.63
2018-04-20T04:33:58.404Z,140.63
2018-04-20T04:34:58.396Z,146.25
2018-04-20T04:35:58.357Z,151.88
2018-04-20T04:36:58.330Z,163.13
2018-04-20T04:37:58.306Z,168.75
2018-04-20T04:38:58.283Z,174.38
2018-04-20T04:39:58.258Z,185.63
2018-04-20T04:40:58.233Z,191.25
2018-04-20T04:41:58.208Z,196.88
2018-04-20T04:42:58.186Z,202.50
2018-04-20T04:43:58.166Z,213.75
2018-04-20T04:44:58.137Z,219.38
2018-04-20T04:45:58.115Z,225.00
2018-04-20T04:46:58.088Z,230.63
2018-04-20T04:47:58.070Z,241.88
2018-04-20T04:48:58.041Z,241.88
2018-04-20T04:49:58.016Z,258.75
2018-04-20T04:50:57.992Z,264.38
2018-04-20T04:51:57.970Z,270.00
2018-04-20T04:52:57.951Z,270.00
2018-04-20T04:53:57.926Z,253.13
2018-04-20T04:54:57.896Z,241.88
2018-04-20T04:55:57.873Z,253.13
2018-04-20T04:56:57.850Z,275.63
2018-04-20T04:57:57.825Z,264.38
2018-04-20T04:58:57.803Z,258.75
2018-04-20T04:59:57.779Z,264.38
2018-04-20T05:00:57.764Z,275.63
2018-04-20T05:01:57.731Z,298.13
2018-04-20T05:02:57.708Z,292.50
2018-04-20T05:03:57.685Z,281.25
2018-04-20T05:04:57.663Z,303.75
2018-04-20T05:05:57.638Z,343.13
2018-04-20T05:06:57.614Z,388.13
2018-04-20T05:07:57.891Z,388.13
2018-04-20T05:08:57.568Z,410.63
2018-04-20T05:09:57.548Z,427.50
2018-04-20T05:10:57.520Z,433.13
2018-04-20T05:11:57.497Z,376.88
2018-04-20T05:12:57.475Z,337.50
2018-04-20T05:13:57.450Z,354.38
2018-04-20T05:14:57.427Z,405.00
2018-04-20T05:15:57.410Z,466.88
2018-04-20T05:16:57.380Z,500.63
2018-04-20T05:17:57.357Z,523.13
2018-04-20T05:18:57.334Z,523.13
2018-04-20T05:19:57.310Z,534.38
2018-04-20T05:20:57.288Z,540.00
2018-04-20T05:21:57.268Z,551.25
2018-04-20T05:22:57.242Z,562.50
2018-04-20T05:23:57.219Z,590.63
2018-04-20T05:24:57.196Z,590.63
2018-04-20T05:25:57.173Z,607.50
2018-04-20T05:26:57.153Z,618.75
2018-04-20T05:27:57.128Z,624.38
2018-04-20T05:28:57.106Z,641.25
2018-04-20T05:29:57.084Z,658.13
2018-04-20T05:30:57.063Z,675.00
2018-04-20T05:31:57.040Z,691.88
2018-04-20T05:32:57.017Z,703.13
2018-04-20T05:33:56.997Z,725.63
2018-04-20T05:34:56.975Z,731.25
2018-04-20T05:35:56.954Z,748.13
2018-04-20T05:36:56.930Z,753.75
2018-04-20T05:37:56.910Z,765.00
2018-04-20T05:38:56.885Z,776.25
2018-04-20T05:39:56.868Z,787.50
2018-04-20T05:40:56.842Z,804.38
2018-04-20T05:41:56.821Z,821.25
2018-04-20T05:42:56.804Z,832.50
2018-04-20T05:43:56.778Z,855.00
2018-04-20T05:44:56.758Z,855.00
2018-04-20T05:45:56.736Z,866.25
2018-04-20T05:46:56.716Z,866.25
2018-04-20T05:47:56.708Z,883.13
2018-04-20T05:48:56.675Z,894.38
2018-04-20T05:49:56.653Z,905.63
2018-04-20T05:50:56.633Z,911.25
2018-04-20T05:51:56.611Z,933.75
2018-04-20T05:52:56.590Z,945.00
2018-04-20T05:53:56.569Z,967.50
2018-04-20T05:54:56.548Z,1006.88
2018-04-20T05:55:56.529Z,1001.25
2018-04-20T05:56:56.508Z,1046.25
2018-04-20T05:57:56.486Z,1046.25
2018-04-20T05:58:56.467Z,1063.13
2018-04-20T05:59:56.447Z,1074.38
2018-04-20T06:00:56.428Z,1102.50
2018-04-20T06:01:56.407Z,1085.63
2018-04-20T06:02:56.386Z,1113.75
2018-04-20T06:03:56.368Z,1153.13
2018-04-20T06:04:56.347Z,1153.13
2018-04-20T06:05:56.327Z,1170.00
2018-04-20T06:06:56.307Z,1186.88
2018-04-20T06:07:56.287Z,1215.00
2018-04-20T06:08:56.271Z,1237.50
2018-04-20T06:09:56.252Z,1237.50
2018-04-20T06:10:56.241Z,1265.63
2018-04-20T06:11:56.211Z,1265.63
2018-04-20T06:12:56.190Z,1282.50
2018-04-20T06:13:56.173Z,1276.88
2018-04-20T06:14:56.173Z,1276.88
2018-04-20T06:15:56.137Z,1316.25
2018-04-20T06:16:56.114Z,1333.13
2018-04-20T06:17:56.100Z,1355.63
2018-04-20T06:18:56.075Z,1372.50
2018-04-20T06:19:56.062Z,1383.75
2018-04-20T06:20:56.040Z,1389.38
2018-04-20T06:21:56.026Z,1434.38
2018-04-20T06:22:56.001Z,1423.13
2018-04-20T06:23:55.986Z,1445.63
2018-04-20T06:24:55.964Z,1451.25
2018-04-20T06:25:55.961Z,1479.38
2018-04-20T06:26:55.934Z,1507.50
2018-04-20T06:27:55.923Z,1507.50
2018-04-20T06:28:55.891Z,1524.38
2018-04-20T06:29:55.873Z,1552.50
2018-04-20T06:30:55.888Z,1586.25
2018-04-20T06:31:55.837Z,1586.25
2018-04-20T06:32:55.851Z,1591.88
2018-04-20T06:33:55.802Z,1631.25
2018-04-20T06:34:55.786Z,1665.00
2018-04-20T06:35:56.021Z,1693.13
2018-04-20T06:36:55.751Z,1681.88
2018-04-20T06:37:55.731Z,1715.63
2018-04-20T06:38:55.715Z,1749.38
2018-04-20T06:39:55.698Z,1760.63
2018-04-20T06:40:55.681Z,1693.13
2018-04-20T06:41:55.663Z,1710.00
2018-04-20T06:42:55.646Z,1788.75
2018-04-20T06:43:55.637Z,1867.50
2018-04-20T06:44:55.612Z,1839.38
2018-04-20T06:45:55.594Z,1805.63
2018-04-20T06:46:55.582Z,1822.50
2018-04-20T06:47:55.562Z,1805.63
2018-04-20T06:48:55.545Z,1794.38
2018-04-20T06:49:55.529Z,1839.38
2018-04-20T06:50:55.524Z,1833.75
2018-04-20T06:51:55.495Z,1816.88
2018-04-20T06:52:55.482Z,1794.38
2018-04-20T06:53:55.464Z,1766.25
2018-04-20T06:54:55.446Z,1732.50
2018-04-20T06:55:55.430Z,1721.25
2018-04-20T06:56:55.414Z,1665.00
2018-04-20T06:57:55.397Z,1614.38
2018-04-20T06:58:55.382Z,1552.50
2018-04-20T06:59:55.365Z,1535.63
2018-04-20T07:00:55.358Z,1440.00
2018-04-20T07:01:55.334Z,1344.38
2018-04-20T07:02:55.326Z,1288.13
2018-04-20T07:03:55.310Z,1243.13
2018-04-20T07:04:55.286Z,1215.00
2018-04-20T07:05:55.270Z,1192.50
2018-04-20T07:06:55.255Z,1175.63
2018-04-20T07:07:55.241Z,1181.25
2018-04-20T07:08:55.225Z,1198.13
2018-04-20T07:09:55.209Z,1271.25
2018-04-20T07:10:55.193Z,2086.88
2018-04-20T07:11:55.204Z,2767.50
2018-04-20T07:12:55.162Z,2626.88
2018-04-20T07:13:55.146Z,2649.38
2018-04-20T07:14:55.130Z,2581.88
2018-04-20T07:15:55.134Z,2446.88
2018-04-20T07:16:55.100Z,2311.88
2018-04-20T07:17:55.090Z,2193.75
2018-04-20T07:18:55.071Z,2092.50
2018-04-20T07:19:55.054Z,2126.25
2018-04-20T07:20:55.039Z,2210.63
2018-04-20T07:21:55.023Z,2238.75
2018-04-20T07:22:55.009Z,2227.50
2018-04-20T07:23:54.992Z,2255.63
2018-04-20T07:24:54.977Z,2306.25
2018-04-20T07:25:54.965Z,2250.00
2018-04-20T07:26:54.955Z,2221.88
2018-04-20T07:27:54.932Z,2092.50
2018-04-20T07:28:54.917Z,2289.38
2018-04-20T07:29:54.903Z,2295.00
2018-04-20T07:30:54.894Z,2289.38
2018-04-20T07:31:54.874Z,2278.13
2018-04-20T07:32:54.866Z,2272.50
2018-04-20T07:33:54.842Z,2255.63
2018-04-20T07:34:54.840Z,2266.88
2018-04-20T07:35:54.816Z,2295.00
2018-04-20T07:36:54.799Z,2351.25
2018-04-20T07:37:54.784Z,2396.25
2018-04-20T07:38:54.768Z,2328.75
2018-04-20T07:39:54.755Z,2407.50
2018-04-20T07:40:54.740Z,2385.00
2018-04-20T07:41:54.726Z,2278.13
2018-04-20T07:42:54.711Z,2278.13
2018-04-20T07:43:54.696Z,2340.00
2018-04-20T07:44:54.682Z,2334.38
2018-04-20T07:45:54.667Z,2390.63
2018-04-20T07:46:54.653Z,2340.00
2018-04-20T07:47:54.644Z,2295.00
2018-04-20T07:48:54.624Z,2373.75
2018-04-20T07:49:54.615Z,2396.25
2018-04-20T07:50:54.600Z,2340.00
2018-04-20T07:51:54.585Z,2368.13
2018-04-20T07:52:54.568Z,2491.88
2018-04-20T07:53:54.554Z,2514.38
2018-04-20T07:54:54.540Z,2503.13
2018-04-20T07:55:54.529Z,2491.88
2018-04-20T07:56:54.512Z,2469.38
2018-04-20T07:57:54.497Z,2407.50
2018-04-20T07:58:54.489Z,2424.38
2018-04-20T07:59:54.497Z,2418.75
2018-04-20T08:00:54.457Z,2413.13
2018-04-20T08:01:54.444Z,2424.38
2018-04-20T08:02:54.433Z,2491.88
2018-04-20T08:03:54.416Z,2475.00
2018-04-20T08:04:54.402Z,2469.38
2018-04-20T08:05:54.388Z,2520.00
2018-04-20T08:06:54.375Z,2621.25
2018-04-20T08:07:54.361Z,2671.88
2018-04-20T08:08:54.354Z,2475.00
2018-04-20T08:09:54.334Z,2581.88
2018-04-20T08:10:54.321Z,2525.63
2018-04-20T08:11:54.333Z,2587.50
2018-04-20T08:12:54.303Z,2458.13
2018-04-20T08:13:54.337Z,2536.88
2018-04-20T08:14:54.268Z,2598.75
2018-04-20T08:15:54.258Z,2581.88
2018-04-20T08:16:54.243Z,2576.25
2018-04-20T08:17:54.232Z,2576.25
2018-04-20T08:18:54.227Z,2565.00
2018-04-20T08:19:54.205Z,2581.88
2018-04-20T08:20:54.198Z,2576.25
2018-04-20T08:21:54.179Z,2626.88
2018-04-20T08:22:54.172Z,2626.88
2018-04-20T08:23:54.162Z,2536.88
2018-04-20T08:24:54.143Z,2508.75
2018-04-20T08:25:54.129Z,2458.13
2018-04-20T08:26:54.121Z,2559.38
2018-04-20T08:27:54.112Z,2581.88
2018-04-20T08:28:54.099Z,2514.38
2018-04-20T08:29:54.085Z,2559.38
2018-04-20T08:30:54.070Z,2643.75
2018-04-20T08:31:54.070Z,2700.00
2018-04-20T08:32:54.051Z,2565.00
2018-04-20T08:33:54.040Z,2559.38
2018-04-20T08:34:54.023Z,2581.88
2018-04-20T08:35:54.019Z,2626.88
2018-04-20T08:36:54.001Z,2531.25
2018-04-20T08:37:53.988Z,2610.00
2018-04-20T08:38:53.976Z,2739.38
2018-04-20T08:39:53.966Z,2671.88
2018-04-20T08:40:53.955Z,2711.25
2018-04-20T08:41:53.944Z,2767.50
2018-04-20T08:42:53.933Z,2671.88
2018-04-20T08:43:53.920Z,2756.25
2018-04-20T08:44:53.910Z,2750.63
2018-04-20T08:45:53.903Z,2683.13
2018-04-20T08:46:53.887Z,2694.38
2018-04-20T08:47:53.877Z,2716.88
2018-04-20T08:48:53.866Z,2660.63
2018-04-20T08:49:53.855Z,2700.00
2018-04-20T08:50:53.852Z,2761.88
2018-04-20T08:51:53.834Z,2767.50
2018-04-20T08:52:53.827Z,2767.50
2018-04-20T08:53:53.815Z,2840.63
2018-04-20T08:54:53.802Z,2739.38
2018-04-20T08:55:53.793Z,2733.75
2018-04-20T08:56:53.782Z,2773.13
2018-04-20T08:57:53.783Z,2733.75
2018-04-20T08:58:53.768Z,2716.88
2018-04-20T08:59:53.757Z,2767.50
2018-04-20T09:00:53.742Z,2773.13
2018-04-20T09:01:53.740Z,2840.63
2018-04-20T09:02:53.722Z,2823.75
2018-04-20T09:03:53.715Z,2733.75
2018-04-20T09:04:53.704Z,2750.63
2018-04-20T09:05:53.692Z,2801.25
2018-04-20T09:06:53.684Z,2745.00
2018-04-20T09:07:53.677Z,2711.25
2018-04-20T09:08:53.663Z,2716.88
2018-04-20T09:09:53.656Z,2970.00
2018-04-20T09:10:53.645Z,3015.00
2018-04-20T09:11:53.634Z,2908.13
2018-04-20T09:12:53.626Z,2902.50
2018-04-20T09:13:53.617Z,2975.63
2018-04-20T09:14:53.625Z,2947.50
2018-04-20T09:15:53.598Z,2874.38
2018-04-20T09:16:53.587Z,2925.00
2018-04-20T09:17:53.577Z,2930.63
2018-04-20T09:18:53.568Z,2885.63
2018-04-20T09:19:53.560Z,2840.63
2018-04-20T09:20:53.551Z,2756.25
2018-04-20T09:21:53.541Z,2902.50
2018-04-20T09:22:53.533Z,2767.50
2018-04-20T09:23:53.524Z,2559.38
2018-04-20T09:24:53.515Z,2750.63
2018-04-20T09:25:53.509Z,2919.38
2018-04-20T09:26:53.496Z,2868.75
2018-04-20T09:27:53.488Z,2857.50
2018-04-20T09:28:53.489Z,3031.88
2018-04-20T09:29:53.473Z,2970.00
2018-04-20T09:30:53.463Z,3065.63
2018-04-20T09:31:53.467Z,3121.88
2018-04-20T09:32:53.447Z,3138.75
2018-04-20T09:33:53.435Z,3076.88
2018-04-20T09:34:53.425Z,3048.75
2018-04-20T09:35:53.418Z,3116.25
2018-04-20T09:36:53.410Z,3031.88
2018-04-20T09:37:53.400Z,3060.00
2018-04-20T09:38:53.396Z,3161.25
2018-04-20T09:39:53.384Z,3172.50
2018-04-20T09:40:53.376Z,3020.63
2018-04-20T09:41:53.367Z,3093.75
2018-04-20T09:42:53.359Z,3166.88
2018-04-20T09:43:53.355Z,3105.00
2018-04-20T09:44:53.347Z,3105.00
2018-04-20T09:45:53.338Z,3166.88
2018-04-20T09:46:53.328Z,3217.50
2018-04-20T09:47:53.320Z,3240.00
2018-04-20T09:48:53.316Z,3256.88
2018-04-20T09:49:53.308Z,3296.25
2018-04-20T09:50:53.299Z,3318.75
2018-04-20T09:51:53.293Z,3279.38
2018-04-20T09:52:53.283Z,3251.25
2018-04-20T09:53:53.275Z,3330.00
2018-04-20T09:54:53.269Z,3341.25
2018-04-20T09:55:53.269Z,3273.75
2018-04-20T09:56:53.259Z,3318.75
2018-04-20T09:57:53.253Z,3414.38
2018-04-20T09:58:53.243Z,3403.13
2018-04-20T09:59:53.234Z,3279.38
2018-04-20T10:00:53.226Z,3307.50
2018-04-20T10:01:53.223Z,3341.25
2018-04-20T10:02:53.232Z,3352.50
2018-04-20T10:03:53.207Z,3431.25
2018-04-20T10:04:53.202Z,3397.50
2018-04-20T10:05:53.227Z,3403.13
2018-04-20T10:06:53.258Z,3498.75
2018-04-20T10:07:53.256Z,3436.88
2018-04-20T10:08:53.173Z,3408.75
2018-04-20T10:09:53.170Z,3543.75
2018-04-20T10:10:53.206Z,3493.13
2018-04-20T10:11:53.149Z,3459.38
2018-04-20T10:12:53.180Z,3555.00
2018-04-20T10:13:53.139Z,3442.50
2018-04-20T10:14:53.166Z,3498.75
2018-04-20T10:15:53.122Z,3611.25
2018-04-20T10:16:53.116Z,3661.88
2018-04-20T10:17:53.125Z,3459.38
2018-04-20T10:18:53.118Z,3532.50
2018-04-20T10:19:53.099Z,3650.63
2018-04-20T10:20:53.091Z,3639.38
2018-04-20T10:21:53.083Z,3645.00
2018-04-20T10:22:53.105Z,3605.63
2018-04-20T10:23:53.105Z,3588.75
2018-04-20T10:24:53.083Z,3611.25
2018-04-20T10:25:53.056Z,3431.25
2018-04-20T10:26:53.050Z,3408.75
2018-04-20T10:27:53.046Z,3566.25
2018-04-20T10:28:53.042Z,3526.88
2018-04-20T10:29:53.047Z,3605.63
2018-04-20T10:30:53.042Z,3532.50
2018-04-20T10:31:53.018Z,3571.88
2018-04-20T10:32:53.022Z,3594.38
2018-04-20T10:33:53.007Z,3375.00
2018-04-20T10:34:53.001Z,3498.75
2018-04-20T10:35:52.991Z,3611.25
2018-04-20T10:36:52.994Z,3667.50
2018-04-20T10:37:53.008Z,3605.63
2018-04-20T10:38:53.013Z,3616.88
2018-04-20T10:39:52.998Z,3633.75
2018-04-20T10:40:52.955Z,3611.25
2018-04-20T10:41:52.980Z,3594.38
2018-04-20T10:42:52.940Z,3560.63
2018-04-20T10:43:52.931Z,3549.38
2018-04-20T10:44:52.928Z,3504.38
2018-04-20T10:45:52.915Z,3611.25
2018-04-20T10:46:52.907Z,3690.00
2018-04-20T10:47:52.915Z,3774.38
2018-04-20T10:48:52.891Z,3571.88
2018-04-20T10:49:52.889Z,3583.13
2018-04-20T10:50:52.884Z,3667.50
2018-04-20T10:51:52.867Z,3639.38
2018-04-20T10:52:52.861Z,3532.50
2018-04-20T10:53:52.854Z,3633.75
2018-04-20T10:54:52.841Z,3555.00
2018-04-20T10:55:52.833Z,3594.38
2018-04-20T10:56:52.825Z,3549.38
2018-04-20T10:57:52.815Z,3431.25
2018-04-20T10:58:52.819Z,3588.75
2018-04-20T10:59:52.798Z,3616.88
2018-04-20T11:00:52.790Z,3616.88
2018-04-20T11:01:52.783Z,3684.38
2018-04-20T11:02:52.812Z,3600.00
2018-04-20T11:03:52.768Z,3532.50
2018-04-20T11:04:52.755Z,3588.75
2018-04-20T11:05:52.755Z,3763.13
2018-04-20T11:06:52.745Z,3830.63
2018-04-20T11:07:52.728Z,3780.00
2018-04-20T11:08:52.721Z,3729.38
2018-04-20T11:09:52.721Z,3712.50
2018-04-20T11:10:52.704Z,3667.50
2018-04-20T11:11:52.693Z,3656.25
2018-04-20T11:12:52.685Z,3718.13
2018-04-20T11:13:52.674Z,3639.38
2018-04-20T11:14:52.665Z,3931.88
2018-04-20T11:15:52.660Z,3853.13
2018-04-20T11:16:52.648Z,3785.63
2018-04-20T11:17:52.637Z,3735.00
2018-04-20T11:18:52.631Z,3605.63
2018-04-20T11:19:52.619Z,3678.75
2018-04-20T11:20:52.631Z,3701.25
2018-04-20T11:21:52.599Z,3706.88
2018-04-20T11:22:52.591Z,3825.00
2018-04-20T11:23:52.579Z,3757.50
2018-04-20T11:24:52.570Z,3796.88
2018-04-20T11:25:52.560Z,3825.00
2018-04-20T11:26:52.561Z,3774.38
2018-04-20T11:27:52.542Z,3802.50
2018-04-20T11:28:52.531Z,3712.50
2018-04-20T11:29:52.521Z,3768.75
2018-04-20T11:30:52.513Z,3808.13
2018-04-20T11:31:52.502Z,3813.75
2018-04-20T11:32:52.491Z,3808.13
2018-04-20T11:33:52.501Z,3706.88
2018-04-20T11:34:52.477Z,3673.13
2018-04-20T11:35:52.461Z,3740.63
2018-04-20T11:36:52.461Z,3785.63
2018-04-20T11:37:52.464Z,3785.63
2018-04-20T11:38:52.431Z,3785.63
2018-04-20T11:39:52.426Z,3667.50
2018-04-20T11:40:52.414Z,3661.88
2018-04-20T11:41:52.401Z,3645.00
2018-04-20T11:42:52.391Z,3605.63
2018-04-20T11:43:52.380Z,3600.00
2018-04-20T11:44:52.396Z,3611.25
2018-04-20T11:45:52.359Z,3667.50
2018-04-20T11:46:52.362Z,3600.00
2018-04-20T11:47:52.340Z,3639.38
2018-04-20T11:48:52.330Z,3673.13
2018-04-20T11:49:52.320Z,3549.38
2018-04-20T11:50:52.310Z,3493.13
2018-04-20T11:51:52.301Z,3656.25
2018-04-20T11:52:52.291Z,3718.13
2018-04-20T11:53:52.353Z,3701.25
2018-04-20T11:54:52.274Z,3628.13
2018-04-20T11:55:52.262Z,3571.88
2018-04-20T11:56:52.255Z,3718.13
2018-04-20T11:57:52.242Z,3690.00
2018-04-20T11:58:52.241Z,3673.13
2018-04-20T11:59:52.223Z,3706.88
2018-04-20T12:00:52.214Z,3639.38
2018-04-20T12:01:52.202Z,3768.75
2018-04-20T12:02:52.194Z,3639.38
2018-04-20T12:03:52.183Z,3746.25
2018-04-20T12:04:52.186Z,3616.88
2018-04-20T12:05:52.170Z,3622.50
2018-04-20T12:06:52.153Z,3465.00
2018-04-20T12:07:52.144Z,3397.50
2018-04-20T12:08:52.135Z,3526.88
2018-04-20T12:09:52.123Z,3605.63
2018-04-20T12:10:52.121Z,3605.63
2018-04-20T12:11:52.105Z,3515.63
2018-04-20T12:12:52.103Z,3521.25
2018-04-20T12:13:52.085Z,3650.63
2018-04-20T12:14:52.075Z,3571.88
2018-04-20T12:15:52.087Z,3498.75
2018-04-20T12:16:52.066Z,3453.75
2018-04-20T12:17:52.045Z,3566.25
2018-04-20T12:18:52.043Z,3465.00
2018-04-20T12:19:52.030Z,3397.50
2018-04-20T12:20:52.017Z,3476.25
2018-04-20T12:21:52.006Z,3498.75
2018-04-20T12:22:51.996Z,3459.38
2018-04-20T12:23:52.013Z,3363.75
2018-04-20T12:24:51.978Z,3268.13
2018-04-20T12:25:51.988Z,3380.63
2018-04-20T12:26:51.957Z,3420.00
2018-04-20T12:27:51.947Z,3420.00
2018-04-20T12:28:51.946Z,3470.63
2018-04-20T12:29:51.926Z,3380.63
2018-04-20T12:30:51.916Z,3391.88